sensor_id;sensor_type;location;lat;lon;timestamp;pressure;altitude;pressure_sealevel;temperature;humidity
37066;BME280;22981;43.080;25.550;2022-11-06T00:01:44;99164.31;;;18.06;48.84
37066;BME280;22981;43.080;25.550;2022-11-06T00:04:12;99169.18;;;18.06;48.88
37066;BME280;22981;43.080;25.550;2022-11-06T00:06:39;99161.60;;;18.08;48.89
37066;BME280;22981;43.080;25.550;2022-11-06T00:09:18;99163.21;;;18.07;48.98
37066;BME280;22981;43.080;25.550;2022-11-06T00:11:47;99171.89;;;18.06;49.05
37066;BME280;22981;43.080;25.550;2022-11-06T00:14:16;99174.59;;;18.06;49.10
37066;BME280;22981;43.080;25.550;2022-11-06T00:16:45;99178.14;;;18.04;49.12
37066;BME280;22981;43.080;25.550;2022-11-06T00:19:14;99167.59;;;18.00;49.13
37066;BME280;22981;43.080;25.550;2022-11-06T00:21:42;99177.87;;;17.98;49.02
37066;BME280;22981;43.080;25.550;2022-11-06T00:24:11;99175.99;;;17.96;49.05
37066;BME280;22981;43.080;25.550;2022-11-06T00:26:39;99180.05;;;17.96;49.06
37066;BME280;22981;43.080;25.550;2022-11-06T00:29:07;99177.08;;;17.95;49.08
37066;BME280;22981;43.080;25.550;2022-11-06T00:31:35;99178.98;;;17.94;49.13
37066;BME280;22981;43.080;25.550;2022-11-06T00:34:04;99180.85;;;17.94;49.15
37066;BME280;22981;43.080;25.550;2022-11-06T00:36:33;99182.20;;;17.94;49.19
37066;BME280;22981;43.080;25.550;2022-11-06T00:39:02;99178.42;;;17.90;49.29
37066;BME280;22981;43.080;25.550;2022-11-06T00:41:29;99189.02;;;17.86;49.47
37066;BME280;22981;43.080;25.550;2022-11-06T00:43:59;99192.53;;;17.84;49.58
37066;BME280;22981;43.080;25.550;2022-11-06T00:46:27;99186.05;;;17.83;49.81
37066;BME280;22981;43.080;25.550;2022-11-06T00:48:55;99194.43;;;17.84;49.94
37066;BME280;22981;43.080;25.550;2022-11-06T00:51:25;99199.32;;;17.82;50.07
37066;BME280;22981;43.080;25.550;2022-11-06T00:53:59;99194.42;;;17.81;50.21
37066;BME280;22981;43.080;25.550;2022-11-06T00:56:24;99200.67;;;17.79;50.33
37066;BME280;22981;43.080;25.550;2022-11-06T00:58:52;99206.88;;;17.77;50.49
37066;BME280;22981;43.080;25.550;2022-11-06T01:01:23;99219.06;;;17.77;50.58
37066;BME280;22981;43.080;25.550;2022-11-06T01:03:55;99164.11;;;17.51;50.74
37066;BME280;22981;43.080;25.550;2022-11-06T01:06:30;99201.20;;;17.76;50.84
37066;BME280;22981;43.080;25.550;2022-11-06T01:08:54;99206.31;;;17.72;50.99
37066;BME280;22981;43.080;25.550;2022-11-06T01:11:24;99198.77;;;17.69;51.20
37066;BME280;22981;43.080;25.550;2022-11-06T01:13:54;99195.25;;;17.69;51.49
37066;BME280;22981;43.080;25.550;2022-11-06T01:16:23;99188.99;;;17.68;51.74
37066;BME280;22981;43.080;25.550;2022-11-06T01:18:52;99195.50;;;17.67;51.84
37066;BME280;22981;43.080;25.550;2022-11-06T01:21:22;99193.08;;;17.66;51.95
37066;BME280;22981;43.080;25.550;2022-11-06T01:24:00;99196.59;;;17.66;52.06
37066;BME280;22981;43.080;25.550;2022-11-06T01:26:27;99196.05;;;17.69;52.07
37066;BME280;22981;43.080;25.550;2022-11-06T01:28:56;99199.30;;;17.69;52.03
37066;BME280;22981;43.080;25.550;2022-11-06T01:31:26;99208.50;;;17.70;52.03
37066;BME280;22981;43.080;25.550;2022-11-06T01:33:55;99202.00;;;17.71;52.15
37066;BME280;22981;43.080;25.550;2022-11-06T01:36:24;99220.95;;;17.71;52.21
37066;BME280;22981;43.080;25.550;2022-11-06T01:38:53;99202.00;;;17.71;52.20
37066;BME280;22981;43.080;25.550;2022-11-06T01:41:26;99202.26;;;17.72;52.20
37066;BME280;22981;43.080;25.550;2022-11-06T01:43:55;99198.48;;;17.73;52.14
37066;BME280;22981;43.080;25.550;2022-11-06T01:46:25;99198.74;;;17.72;52.08
37066;BME280;22981;43.080;25.550;2022-11-06T01:49:03;99205.80;;;17.73;52.12
37066;BME280;22981;43.080;25.550;2022-11-06T01:51:28;99204.74;;;17.74;52.06
37066;BME280;22981;43.080;25.550;2022-11-06T01:53:56;99213.92;;;17.73;52.02
37066;BME280;22981;43.080;25.550;2022-11-06T01:56:24;99219.09;;;17.74;51.96
37066;BME280;22981;43.080;25.550;2022-11-06T01:58:54;99217.19;;;17.75;51.87
37066;BME280;22981;43.080;25.550;2022-11-06T02:01:22;99218.28;;;17.74;51.78
37066;BME280;22981;43.080;25.550;2022-11-06T02:04:11;99222.30;;;17.71;51.78
37066;BME280;22981;43.080;25.550;2022-11-06T02:06:38;99225.28;;;17.67;51.77
37066;BME280;22981;43.080;25.550;2022-11-06T02:09:06;99222.31;;;17.61;51.78
37066;BME280;22981;43.080;25.550;2022-11-06T02:11:39;99229.09;;;17.56;51.81
37066;BME280;22981;43.080;25.550;2022-11-06T02:14:23;99224.50;;;17.51;51.81
37066;BME280;22981;43.080;25.550;2022-11-06T02:22:30;99242.34;;;17.50;51.96
37066;BME280;22981;43.080;25.550;2022-11-06T02:27:50;99245.03;;;17.42;52.09
37066;BME280;22981;43.080;25.550;2022-11-06T02:30:12;99259.38;;;17.38;52.34
37066;BME280;22981;43.080;25.550;2022-11-06T02:32:45;99248.56;;;17.40;52.46
37066;BME280;22981;43.080;25.550;2022-11-06T02:35:31;99246.66;;;17.41;52.56
37066;BME280;22981;43.080;25.550;2022-11-06T02:38:11;99258.31;;;17.39;52.43
37066;BME280;22981;43.080;25.550;2022-11-06T02:40:37;99252.06;;;17.33;52.54
37066;BME280;22981;43.080;25.550;2022-11-06T02:43:07;99249.64;;;17.32;52.54
37066;BME280;22981;43.080;25.550;2022-11-06T02:45:47;99258.83;;;17.33;52.65
37066;BME280;22981;43.080;25.550;2022-11-06T02:48:16;99212.54;;;17.01;52.51
37066;BME280;22981;43.080;25.550;2022-11-06T02:50:46;99249.89;;;17.25;52.50
37066;BME280;22981;43.080;25.550;2022-11-06T02:53:17;99247.44;;;17.21;52.54
37066;BME280;22981;43.080;25.550;2022-11-06T02:55:47;99246.90;;;17.16;52.62
37066;BME280;22981;43.080;25.550;2022-11-06T02:58:21;99260.98;;;17.13;52.62
37066;BME280;22981;43.080;25.550;2022-11-06T03:00:56;99253.39;;;17.10;52.67
37066;BME280;22981;43.080;25.550;2022-11-06T03:03:31;99262.58;;;17.07;52.87
37066;BME280;22981;43.080;25.550;2022-11-06T03:06:01;99259.61;;;17.06;52.93
37066;BME280;22981;43.080;25.550;2022-11-06T03:11:33;99263.09;;;17.03;53.40
37066;BME280;22981;43.080;25.550;2022-11-06T03:14:12;99271.25;;;17.09;53.37
37066;BME280;22981;43.080;25.550;2022-11-06T03:22:06;99264.73;;;17.02;53.16
37066;BME280;22981;43.080;25.550;2022-11-06T03:24:56;99270.92;;;17.00;53.13
37066;BME280;22981;43.080;25.550;2022-11-06T03:27:28;99269.86;;;16.96;53.16
37066;BME280;22981;43.080;25.550;2022-11-06T03:30:05;99272.80;;;16.89;53.28
37066;BME280;22981;43.080;25.550;2022-11-06T03:32:50;99280.62;;;16.86;53.36
37066;BME280;22981;43.080;25.550;2022-11-06T03:35:27;99278.72;;;16.81;53.43
37066;BME280;22981;43.080;25.550;2022-11-06T03:40:30;99300.33;;;16.76;53.76
37066;BME280;22981;43.080;25.550;2022-11-06T03:43:01;99302.77;;;16.75;53.99
37066;BME280;22981;43.080;25.550;2022-11-06T03:45:30;99304.38;;;16.78;54.23
37066;BME280;22981;43.080;25.550;2022-11-06T03:48:07;99304.68;;;16.80;54.28
37066;BME280;22981;43.080;25.550;2022-11-06T03:50:43;99304.12;;;16.83;54.61
37066;BME280;22981;43.080;25.550;2022-11-06T03:53:08;99307.41;;;16.90;54.65
37066;BME280;22981;43.080;25.550;2022-11-06T03:55:45;99309.59;;;16.95;54.69
37066;BME280;22981;43.080;25.550;2022-11-06T03:58:21;99297.71;;;16.96;54.84
37066;BME280;22981;43.080;25.550;2022-11-06T04:00:50;99306.09;;;16.97;55.00
37066;BME280;22981;43.080;25.550;2022-11-06T04:03:22;99313.14;;;17.01;55.18
37066;BME280;22981;43.080;25.550;2022-11-06T04:06:05;99316.11;;;17.02;55.37
37066;BME280;22981;43.080;25.550;2022-11-06T04:08:31;99320.70;;;16.96;55.42
37066;BME280;22981;43.080;25.550;2022-11-06T04:11:19;99325.81;;;16.93;55.51
37066;BME280;22981;43.080;25.550;2022-11-06T04:14:07;99328.23;;;16.89;55.73
37066;BME280;22981;43.080;25.550;2022-11-06T04:16:44;99325.27;;;16.88;55.73
37066;BME280;22981;43.080;25.550;2022-11-06T04:19:15;99326.07;;;16.89;55.87
37066;BME280;22981;43.080;25.550;2022-11-06T04:28:11;99324.66;;;16.78;55.79
37066;BME280;22981;43.080;25.550;2022-11-06T04:33:30;99334.10;;;16.73;55.71
37066;BME280;22981;43.080;25.550;2022-11-06T04:39:05;99328.36;;;16.62;55.92
37066;BME280;22981;43.080;25.550;2022-11-06T04:42:14;99332.36;;;16.57;55.91
37066;BME280;22981;43.080;25.550;2022-11-06T04:44:48;99333.69;;;16.49;56.00
37066;BME280;22981;43.080;25.550;2022-11-06T04:47:20;99333.61;;;16.39;56.06
37066;BME280;22981;43.080;25.550;2022-11-06T04:49:51;99330.88;;;16.32;56.12
37066;BME280;22981;43.080;25.550;2022-11-06T04:52:24;99334.84;;;16.21;56.28
37066;BME280;22981;43.080;25.550;2022-11-06T04:54:53;99333.44;;;16.14;56.41
37066;BME280;22981;43.080;25.550;2022-11-06T04:57:22;99339.05;;;16.05;56.54
37066;BME280;22981;43.080;25.550;2022-11-06T04:59:50;99339.82;;;15.97;56.66
37066;BME280;22981;43.080;25.550;2022-11-06T05:02:18;99338.16;;;15.94;56.73
37066;BME280;22981;43.080;25.550;2022-11-06T05:04:45;99340.29;;;15.89;56.82
37066;BME280;22981;43.080;25.550;2022-11-06T05:07:13;99342.41;;;15.85;56.89
37066;BME280;22981;43.080;25.550;2022-11-06T05:09:42;99341.84;;;15.83;57.19
37066;BME280;22981;43.080;25.550;2022-11-06T05:12:11;99349.12;;;15.82;57.20
37066;BME280;22981;43.080;25.550;2022-11-06T05:14:38;99351.21;;;15.75;57.31
37066;BME280;22981;43.080;25.550;2022-11-06T05:17:06;99357.42;;;15.73;57.47
37066;BME280;22981;43.080;25.550;2022-11-06T05:19:34;99360.66;;;15.75;57.47
37066;BME280;22981;43.080;25.550;2022-11-06T05:22:01;99366.05;;;15.72;57.39
37066;BME280;22981;43.080;25.550;2022-11-06T05:24:47;99364.89;;;15.66;57.45
37066;BME280;22981;43.080;25.550;2022-11-06T05:27:14;99368.29;;;15.59;57.50
37066;BME280;22981;43.080;25.550;2022-11-06T05:29:42;99371.25;;;15.55;57.62
37066;BME280;22981;43.080;25.550;2022-11-06T05:32:10;99374.72;;;15.52;57.73
37066;BME280;22981;43.080;25.550;2022-11-06T05:34:37;99381.96;;;15.49;57.82
37066;BME280;22981;43.080;25.550;2022-11-06T05:37:05;99383.00;;;15.46;57.87
37066;BME280;22981;43.080;25.550;2022-11-06T05:39:32;99387.30;;;15.44;57.95
37066;BME280;22981;43.080;25.550;2022-11-06T05:42:00;99394.85;;;15.42;58.01
37066;BME280;22981;43.080;25.550;2022-11-06T05:44:27;99392.92;;;15.40;58.10
37066;BME280;22981;43.080;25.550;2022-11-06T05:46:55;99394.27;;;15.40;58.16
37066;BME280;22981;43.080;25.550;2022-11-06T05:49:22;99398.05;;;15.39;58.18
37066;BME280;22981;43.080;25.550;2022-11-06T05:51:50;99396.70;;;15.39;58.18
37066;BME280;22981;43.080;25.550;2022-11-06T05:54:18;99402.09;;;15.39;58.22
37066;BME280;22981;43.080;25.550;2022-11-06T05:56:45;99407.77;;;15.40;58.25
37066;BME280;22981;43.080;25.550;2022-11-06T05:59:13;99401.83;;;15.41;58.29
37066;BME280;22981;43.080;25.550;2022-11-06T06:01:40;99404.83;;;15.42;58.30
37066;BME280;22981;43.080;25.550;2022-11-06T06:04:08;99405.66;;;15.45;58.28
37066;BME280;22981;43.080;25.550;2022-11-06T06:06:35;99404.08;;;15.46;58.26
37066;BME280;22981;43.080;25.550;2022-11-06T06:09:03;99407.63;;;15.52;58.25
37066;BME280;22981;43.080;25.550;2022-11-06T06:11:31;99404.71;;;15.56;58.21
37066;BME280;22981;43.080;25.550;2022-11-06T06:13:59;99411.23;;;15.60;58.21
37066;BME280;22981;43.080;25.550;2022-11-06T06:16:27;99406.45;;;15.65;58.19
37066;BME280;22981;43.080;25.550;2022-11-06T06:18:55;99401.64;;;15.69;58.19
37066;BME280;22981;43.080;25.550;2022-11-06T06:21:22;99401.91;;;15.70;58.21
37066;BME280;22981;43.080;25.550;2022-11-06T06:23:50;99409.51;;;15.73;58.23
37066;BME280;22981;43.080;25.550;2022-11-06T06:26:17;99406.55;;;15.75;58.30
37066;BME280;22981;43.080;25.550;2022-11-06T06:28:47;99414.67;;;15.77;58.33
37066;BME280;22981;43.080;25.550;2022-11-06T06:31:14;99408.20;;;15.78;58.31
37066;BME280;22981;43.080;25.550;2022-11-06T06:33:42;99415.80;;;15.82;58.33
37066;BME280;22981;43.080;25.550;2022-11-06T06:36:10;99420.66;;;15.82;58.40
37066;BME280;22981;43.080;25.550;2022-11-06T06:38:38;99418.45;;;15.79;58.55
37066;BME280;22981;43.080;25.550;2022-11-06T06:41:06;99426.59;;;15.82;58.50
37066;BME280;22981;43.080;25.550;2022-11-06T06:43:35;99418.50;;;15.82;58.50
37066;BME280;22981;43.080;25.550;2022-11-06T06:46:04;99426.83;;;15.80;58.62
37066;BME280;22981;43.080;25.550;2022-11-06T06:48:32;99435.78;;;15.83;58.77
37066;BME280;22981;43.080;25.550;2022-11-06T06:51:01;99436.05;;;15.82;58.58
37066;BME280;22981;43.080;25.550;2022-11-06T06:53:30;99430.83;;;15.72;58.64
37066;BME280;22981;43.080;25.550;2022-11-06T06:55:59;99435.41;;;15.72;58.72
37066;BME280;22981;43.080;25.550;2022-11-06T06:58:27;99440.81;;;15.74;58.80
37066;BME280;22981;43.080;25.550;2022-11-06T07:01:04;99446.26;;;15.77;58.92
37066;BME280;22981;43.080;25.550;2022-11-06T07:03:28;99448.16;;;15.79;59.01
37066;BME280;22981;43.080;25.550;2022-11-06T07:05:57;99453.33;;;15.83;59.08
37066;BME280;22981;43.080;25.550;2022-11-06T07:08:25;99455.56;;;15.89;59.13
37066;BME280;22981;43.080;25.550;2022-11-06T07:11:01;99461.81;;;15.94;59.11
37066;BME280;22981;43.080;25.550;2022-11-06T07:13:29;99459.44;;;16.00;58.99
37066;BME280;22981;43.080;25.550;2022-11-06T07:15:57;99457.09;;;16.09;58.87
37066;BME280;22981;43.080;25.550;2022-11-06T07:18:24;99459.33;;;16.15;58.87
37066;BME280;22981;43.080;25.550;2022-11-06T07:20:52;99452.88;;;16.21;58.98
37066;BME280;22981;43.080;25.550;2022-11-06T07:23:20;99453.73;;;16.24;58.96
37066;BME280;22981;43.080;25.550;2022-11-06T07:25:53;99459.44;;;16.27;58.94
37066;BME280;22981;43.080;25.550;2022-11-06T07:28:21;99464.00;;;16.24;58.65
37066;BME280;22981;43.080;25.550;2022-11-06T07:30:48;99460.41;;;16.16;58.54
37066;BME280;22981;43.080;25.550;2022-11-06T07:33:16;99464.15;;;16.13;58.65
37066;BME280;22981;43.080;25.550;2022-11-06T07:35:43;99462.03;;;16.17;58.62
37066;BME280;22981;43.080;25.550;2022-11-06T07:38:11;99469.36;;;16.22;58.59
37066;BME280;22981;43.080;25.550;2022-11-06T07:40:38;99469.13;;;16.26;58.61
37066;BME280;22981;43.080;25.550;2022-11-06T07:43:08;99472.10;;;16.27;58.50
37066;BME280;22981;43.080;25.550;2022-11-06T07:45:36;99471.30;;;16.26;58.51
37066;BME280;22981;43.080;25.550;2022-11-06T07:48:05;99466.42;;;16.26;58.61
37066;BME280;22981;43.080;25.550;2022-11-06T07:50:33;99465.95;;;16.32;58.69
37066;BME280;22981;43.080;25.550;2022-11-06T07:53:03;99470.28;;;16.35;58.69
37066;BME280;22981;43.080;25.550;2022-11-06T07:55:31;99465.73;;;16.38;58.73
37066;BME280;22981;43.080;25.550;2022-11-06T07:57:58;99467.38;;;16.42;58.74
37066;BME280;22981;43.080;25.550;2022-11-06T08:00:26;99470.39;;;16.48;58.71
37066;BME280;22981;43.080;25.550;2022-11-06T08:02:54;99470.97;;;16.52;58.75
37066;BME280;22981;43.080;25.550;2022-11-06T08:05:21;99464.78;;;16.57;58.66
37066;BME280;22981;43.080;25.550;2022-11-06T08:07:54;99470.22;;;16.60;58.61
37066;BME280;22981;43.080;25.550;2022-11-06T08:10:18;99468.59;;;16.61;58.59
37066;BME280;22981;43.080;25.550;2022-11-06T08:12:45;99471.88;;;16.63;58.58
37066;BME280;22981;43.080;25.550;2022-11-06T08:15:13;99469.20;;;16.68;58.55
37066;BME280;22981;43.080;25.550;2022-11-06T08:17:41;99472.00;;;16.76;58.55
37066;BME280;22981;43.080;25.550;2022-11-06T08:20:10;99470.13;;;16.82;58.60
37066;BME280;22981;43.080;25.550;2022-11-06T08:22:37;99458.02;;;16.89;58.52
37066;BME280;22981;43.080;25.550;2022-11-06T08:25:05;99464.29;;;17.00;58.45
37066;BME280;22981;43.080;25.550;2022-11-06T08:27:33;99466.50;;;17.08;58.45
37066;BME280;22981;43.080;25.550;2022-11-06T08:30:01;99466.55;;;17.13;58.32
37066;BME280;22981;43.080;25.550;2022-11-06T08:32:28;99462.49;;;17.16;58.24
37066;BME280;22981;43.080;25.550;2022-11-06T08:34:56;99464.41;;;17.20;58.24
37066;BME280;22981;43.080;25.550;2022-11-06T08:37:23;99460.37;;;17.25;58.20
37066;BME280;22981;43.080;25.550;2022-11-06T08:39:51;99466.09;;;17.32;58.19
37066;BME280;22981;43.080;25.550;2022-11-06T08:42:18;99469.36;;;17.36;58.25
37066;BME280;22981;43.080;25.550;2022-11-06T08:44:46;99467.22;;;17.41;58.30
37066;BME280;22981;43.080;25.550;2022-11-06T08:47:13;99462.65;;;17.49;58.16
37066;BME280;22981;43.080;25.550;2022-11-06T08:49:41;99466.19;;;17.60;58.02
37066;BME280;22981;43.080;25.550;2022-11-06T08:52:08;99469.48;;;17.72;57.75
37066;BME280;22981;43.080;25.550;2022-11-06T08:54:36;99468.47;;;17.83;57.43
37066;BME280;22981;43.080;25.550;2022-11-06T08:57:04;99467.14;;;17.91;57.11
37066;BME280;22981;43.080;25.550;2022-11-06T08:59:31;99471.74;;;17.98;56.91
37066;BME280;22981;43.080;25.550;2022-11-06T09:01:59;99473.40;;;18.04;56.72
37066;BME280;22981;43.080;25.550;2022-11-06T09:04:27;99464.71;;;18.07;56.55
37066;BME280;22981;43.080;25.550;2022-11-06T09:06:56;99468.52;;;18.11;56.32
37066;BME280;22981;43.080;25.550;2022-11-06T09:09:24;99459.61;;;18.16;56.27
37066;BME280;22981;43.080;25.550;2022-11-06T09:11:53;99462.86;;;18.20;56.09
37066;BME280;22981;43.080;25.550;2022-11-06T09:14:20;99463.41;;;18.25;55.95
37066;BME280;22981;43.080;25.550;2022-11-06T09:16:48;99464.20;;;18.28;55.87
37066;BME280;22981;43.080;25.550;2022-11-06T09:19:15;99466.94;;;18.33;55.65
37066;BME280;22981;43.080;25.550;2022-11-06T09:21:43;99465.30;;;18.35;55.38
37066;BME280;22981;43.080;25.550;2022-11-06T09:24:11;99463.39;;;18.35;55.12
37066;BME280;22981;43.080;25.550;2022-11-06T09:26:38;99462.87;;;18.33;55.07
37066;BME280;22981;43.080;25.550;2022-11-06T09:29:06;99463.67;;;18.34;55.04
37066;BME280;22981;43.080;25.550;2022-11-06T09:31:33;99460.16;;;18.33;54.92
37066;BME280;22981;43.080;25.550;2022-11-06T09:34:01;99467.20;;;18.34;54.88
37066;BME280;22981;43.080;25.550;2022-11-06T09:36:28;99457.45;;;18.33;54.84
37066;BME280;22981;43.080;25.550;2022-11-06T09:38:56;99460.97;;;18.34;54.85
37066;BME280;22981;43.080;25.550;2022-11-06T09:41:45;99460.16;;;18.33;54.91
37066;BME280;22981;43.080;25.550;2022-11-06T09:46:58;99457.16;;;18.35;54.90
37066;BME280;22981;43.080;25.550;2022-11-06T09:49:42;99448.48;;;18.35;54.90
37066;BME280;22981;43.080;25.550;2022-11-06T09:52:37;99448.20;;;18.37;54.88
37066;BME280;22981;43.080;25.550;2022-11-06T09:55:13;99451.21;;;18.38;54.79
37066;BME280;22981;43.080;25.550;2022-11-06T09:57:52;99451.21;;;18.38;54.69
37066;BME280;22981;43.080;25.550;2022-11-06T10:00:20;99451.21;;;18.38;54.63
37066;BME280;22981;43.080;25.550;2022-11-06T10:02:53;99450.67;;;18.38;54.62
37066;BME280;22981;43.080;25.550;2022-11-06T10:05:26;99450.93;;;18.39;54.54
37066;BME280;22981;43.080;25.550;2022-11-06T10:07:57;99451.20;;;18.43;54.54
37066;BME280;22981;43.080;25.550;2022-11-06T10:13:50;99454.99;;;18.52;54.26
37066;BME280;22981;43.080;25.550;2022-11-06T10:19:23;99451.20;;;18.63;53.87
37066;BME280;22981;43.080;25.550;2022-11-06T10:24:25;99450.38;;;18.68;53.21
37066;BME280;22981;43.080;25.550;2022-11-06T10:26:56;99443.86;;;18.69;53.14
37066;BME280;22981;43.080;25.550;2022-11-06T10:29:34;99442.51;;;18.69;52.94
37066;BME280;22981;43.080;25.550;2022-11-06T10:35:07;99436.27;;;18.68;52.82
37066;BME280;22981;43.080;25.550;2022-11-06T10:37:46;99440.35;;;18.71;52.82
37066;BME280;22981;43.080;25.550;2022-11-06T10:40:20;99442.79;;;18.75;52.78
37066;BME280;22981;43.080;25.550;2022-11-06T10:42:53;99431.95;;;18.78;52.55
37066;BME280;22981;43.080;25.550;2022-11-06T10:45:17;99432.47;;;18.80;52.40
37066;BME280;22981;43.080;25.550;2022-11-06T10:48:00;99421.08;;;18.83;52.27
37066;BME280;22981;43.080;25.550;2022-11-06T10:50:33;99425.96;;;18.83;52.06
37066;BME280;22981;43.080;25.550;2022-11-06T10:53:08;99424.88;;;18.87;52.00
37066;BME280;22981;43.080;25.550;2022-11-06T10:58:18;99419.71;;;18.90;51.74
37066;BME280;22981;43.080;25.550;2022-11-06T11:00:46;99414.30;;;18.93;51.74
37066;BME280;22981;43.080;25.550;2022-11-06T11:03:23;99417.80;;;18.98;51.53
37066;BME280;22981;43.080;25.550;2022-11-06T11:05:52;99418.05;;;18.99;51.53
37066;BME280;22981;43.080;25.550;2022-11-06T11:13:42;99419.94;;;19.07;51.43
37066;BME280;22981;43.080;25.550;2022-11-06T11:16:15;99422.63;;;19.09;51.24
37066;BME280;22981;43.080;25.550;2022-11-06T11:18:45;99422.09;;;19.12;51.22
37066;BME280;22981;43.080;25.550;2022-11-06T11:21:19;99424.80;;;19.15;51.22
37066;BME280;22981;43.080;25.550;2022-11-06T11:23:44;99423.70;;;19.16;51.12
37066;BME280;22981;43.080;25.550;2022-11-06T11:26:20;99417.73;;;19.19;51.05
37066;BME280;22981;43.080;25.550;2022-11-06T11:28:56;99423.97;;;19.19;51.07
37066;BME280;22981;43.080;25.550;2022-11-06T11:31:35;99419.61;;;19.21;51.02
37066;BME280;22981;43.080;25.550;2022-11-06T11:34:13;99420.97;;;19.23;50.95
37066;BME280;22981;43.080;25.550;2022-11-06T11:36:51;99423.40;;;19.28;50.72
37066;BME280;22981;43.080;25.550;2022-11-06T11:39:21;99417.42;;;19.28;50.62
37066;BME280;22981;43.080;25.550;2022-11-06T11:41:49;99419.04;;;19.29;50.42
37066;BME280;22981;43.080;25.550;2022-11-06T11:44:18;99411.70;;;19.30;50.44
37066;BME280;22981;43.080;25.550;2022-11-06T11:46:53;99410.61;;;19.31;50.25
37066;BME280;22981;43.080;25.550;2022-11-06T11:49:33;99408.19;;;19.32;50.21
37066;BME280;22981;43.080;25.550;2022-11-06T11:52:09;99414.13;;;19.34;50.25
37066;BME280;22981;43.080;25.550;2022-11-06T11:54:35;99411.97;;;19.33;50.10
37066;BME280;22981;43.080;25.550;2022-11-06T11:57:05;99410.87;;;19.34;50.14
37066;BME280;22981;43.080;25.550;2022-11-06T12:02:19;99405.70;;;19.35;50.12
37066;BME280;22981;43.080;25.550;2022-11-06T12:04:59;99404.34;;;19.35;50.05
37066;BME280;22981;43.080;25.550;2022-11-06T12:07:25;99404.34;;;19.35;49.90
37066;BME280;22981;43.080;25.550;2022-11-06T12:09:53;99402.47;;;19.36;49.76
37066;BME280;22981;43.080;25.550;2022-11-06T12:12:27;99404.08;;;19.37;49.60
37066;BME280;22981;43.080;25.550;2022-11-06T12:18:08;99399.45;;;19.37;49.66
37066;BME280;22981;43.080;25.550;2022-11-06T12:20:53;99403.53;;;19.37;49.55
37066;BME280;22981;43.080;25.550;2022-11-06T12:26:25;99399.17;;;19.39;49.49
37066;BME280;22981;43.080;25.550;2022-11-06T12:28:55;99402.69;;;19.39;49.46
37066;BME280;22981;43.080;25.550;2022-11-06T12:31:38;99401.88;;;19.39;49.61
37066;BME280;22981;43.080;25.550;2022-11-06T12:34:10;99401.34;;;19.39;49.67
37066;BME280;22981;43.080;25.550;2022-11-06T12:36:44;99409.77;;;19.38;49.71
37066;BME280;22981;43.080;25.550;2022-11-06T12:39:12;99407.60;;;19.37;49.42
37066;BME280;22981;43.080;25.550;2022-11-06T12:41:45;99408.70;;;19.36;49.18
37066;BME280;22981;43.080;25.550;2022-11-06T12:44:14;99415.75;;;19.37;49.06
37066;BME280;22981;43.080;25.550;2022-11-06T12:46:47;99413.84;;;19.38;48.99
37066;BME280;22981;43.080;25.550;2022-11-06T12:52:16;99415.75;;;19.37;49.00
37066;BME280;22981;43.080;25.550;2022-11-06T12:55:08;99414.94;;;19.37;48.96
37066;BME280;22981;43.080;25.550;2022-11-06T13:00:18;99415.48;;;19.36;48.91
37066;BME280;22981;43.080;25.550;2022-11-06T13:08:34;99416.55;;;19.35;48.80
37066;BME280;22981;43.080;25.550;2022-11-06T13:16:55;99426.89;;;19.33;48.82
37066;BME280;22981;43.080;25.550;2022-11-06T13:19:19;99422.82;;;19.31;48.87
37066;BME280;22981;43.080;25.550;2022-11-06T13:22:14;99423.92;;;19.30;48.81
37066;BME280;22981;43.080;25.550;2022-11-06T13:24:45;99421.46;;;19.31;48.71
37066;BME280;22981;43.080;25.550;2022-11-06T13:27:25;99424.73;;;19.30;48.75
37066;BME280;22981;43.080;25.550;2022-11-06T13:29:55;99423.92;;;19.30;48.87
37066;BME280;22981;43.080;25.550;2022-11-06T13:32:24;99429.63;;;19.28;48.99
37066;BME280;22981;43.080;25.550;2022-11-06T13:34:54;99426.62;;;19.27;49.04
37066;BME280;22981;43.080;25.550;2022-11-06T13:37:46;99426.92;;;19.25;49.12
37066;BME280;22981;43.080;25.550;2022-11-06T13:40:00;99425.84;;;19.24;49.14
37066;BME280;22981;43.080;25.550;2022-11-06T13:42:35;99431.28;;;19.24;49.16
37066;BME280;22981;43.080;25.550;2022-11-06T13:45:02;99432.38;;;19.23;49.21
37066;BME280;22981;43.080;25.550;2022-11-06T13:48:02;99429.37;;;19.22;49.31
37066;BME280;22981;43.080;25.550;2022-11-06T13:50:13;99431.30;;;19.19;49.42
37066;BME280;22981;43.080;25.550;2022-11-06T13:55:44;99434.82;;;19.17;49.61
37066;BME280;22981;43.080;25.550;2022-11-06T13:58:26;99436.47;;;19.15;49.72
37066;BME280;22981;43.080;25.550;2022-11-06T14:03:52;99433.48;;;19.12;49.97
37066;BME280;22981;43.080;25.550;2022-11-06T14:06:21;99431.61;;;19.07;50.11
37066;BME280;22981;43.080;25.550;2022-11-06T14:08:55;99436.22;;;19.04;50.34
37066;BME280;22981;43.080;25.550;2022-11-06T14:11:32;99433.53;;;19.01;50.58
37066;BME280;22981;43.080;25.550;2022-11-06T14:14:05;99431.08;;;19.00;50.71
37066;BME280;22981;43.080;25.550;2022-11-06T14:16:35;99435.98;;;18.98;51.05
37066;BME280;22981;43.080;25.550;2022-11-06T14:19:11;99440.04;;;18.95;51.21
37066;BME280;22981;43.080;25.550;2022-11-06T14:21:45;99444.14;;;18.93;51.14
37066;BME280;22981;43.080;25.550;2022-11-06T14:27:05;99440.08;;;18.85;51.40
37066;BME280;22981;43.080;25.550;2022-11-06T14:32:31;99450.13;;;18.77;51.59
37066;BME280;22981;43.080;25.550;2022-11-06T14:34:42;99449.85;;;18.73;51.74
37066;BME280;22981;43.080;25.550;2022-11-06T14:42:42;99449.58;;;18.60;52.05
37066;BME280;22981;43.080;25.550;2022-11-06T14:45:19;99447.68;;;18.55;52.16
37066;BME280;22981;43.080;25.550;2022-11-06T14:47:54;99454.98;;;18.49;52.28